KVNY/VNY METAR and TAF weather

Enter ICAO airport designator
Station Type Date Time Source
KVNY METAR 2019/12/13 02:51 UTC NOAA

KVNY 130251Z 34008KT 10SM CLR 21/08 A3015 RMK AO2 SLP204 T02060083 51008


Station Type Date Time Source
KVNY Decoded METAR 2019/12/13 02:51 UTC NOAA

VAN NUYS AIRPORT, CA, United States (KVNY) 34-13N 118-29W 245M
Dec 12, 2019 - 09:51 PM EST / 2019.12.13 0251 UTC
Wind: from the NNW (340 degrees) at 9 MPH (8 KT):0
Visibility: 10 mile(s):0
Sky conditions: clear
Temperature: 69.1 F (20.6 C)
Dew Point: 46.9 F (8.3 C)
Relative Humidity: 45%
Pressure (altimeter): 30.15 in. Hg (1020 hPa)
Pressure tendency: 0.02 inches (0.8 hPa) higher than three hours ago
ob: KVNY 130251Z 34008KT 10SM CLR 21/08 A3015 RMK AO2 SLP204 T02060083 51008
cycle: 3

Station Type Date Time Source
KVNY TAF 2019/12/12 18:30 UTC NOAA

TAF KVNY 121729Z 1218/1318 VRB03KT P6SM BKN200
FM122100 36006KT P6SM BKN200
FM131000 VRB03KT P6SM BKN200

Example: see airport list